Arkansaw, Wisconsin
Current Conditions -  °F | °C
As of 10:35 PM on Saturday 22 Nov 2014 (Local Time) from KLUM Reporting Station
Moderate Fog Moderate Fog  
Wind Chill: 30°   Ceiling: 200
Heat Index: 36°   Visibility: 0mi
Dew Point: 35°   Wind: 7mph
Humidity: 98%   Direction: 110°ESE
Pressure: 29.6"   Gusts: NA
Location:  44.63°N, 92.03°W
Report Text: KLUM 230435Z AUTO 11006KT M1/4SM FG OVC002 02/02 A2960 RMK AO2 T00200017
Loading
Personal Weather Stations






























Interactive Weather Map New forecast layout! Learn more

10-Day Weather Forecast

Advertisements
Track Severe Weather on mobile